createdAt,value
2019-03-27T00:00:21.608Z,9.83
2019-03-27T00:02:50.966Z,8.20
2019-03-27T00:05:20.321Z,8.30
2019-03-27T00:07:49.814Z,8.50
2019-03-27T00:10:19.193Z,13.03
2019-03-27T00:12:48.677Z,7.80
2019-03-27T00:15:18.129Z,11.27
2019-03-27T00:17:47.554Z,10.93
2019-03-27T00:20:17.066Z,9.30
2019-03-27T00:22:46.609Z,7.73
2019-03-27T00:25:16.142Z,13.07
2019-03-27T00:27:45.694Z,8.63
2019-03-27T00:30:15.805Z,8.70
2019-03-27T00:32:45.187Z,8.23
2019-03-27T00:35:14.771Z,12.23
2019-03-27T00:37:44.151Z,12.10
2019-03-27T00:40:13.950Z,8.40
2019-03-27T00:42:43.507Z,7.03
2019-03-27T00:45:25.816Z,9.87
2019-03-27T00:47:44.279Z,9.43
2019-03-27T00:50:13.774Z,13.37
2019-03-27T00:52:43.240Z,9.67
2019-03-27T00:55:13.230Z,9.80
2019-03-27T00:57:42.695Z,8.37
2019-03-27T01:00:22.340Z,8.87
2019-03-27T01:02:52.044Z,8.30
2019-03-27T01:05:21.606Z,8.70
2019-03-27T01:07:51.037Z,10.00
2019-03-27T01:10:20.458Z,8.53
2019-03-27T01:12:49.825Z,8.80
2019-03-27T01:15:19.287Z,13.53
2019-03-27T01:17:48.645Z,11.70
2019-03-27T01:20:18.106Z,12.90
2019-03-27T01:22:47.565Z,12.93
2019-03-27T01:25:17.058Z,11.20
2019-03-27T01:27:46.493Z,8.70
2019-03-27T01:30:16.204Z,7.30
2019-03-27T01:32:45.758Z,5.23
2019-03-27T01:35:15.249Z,13.53
2019-03-27T01:37:44.685Z,4.87
2019-03-27T01:40:14.206Z,5.23
2019-03-27T01:42:43.609Z,12.93
2019-03-27T01:45:13.431Z,4.40
2019-03-27T01:47:42.793Z,10.70
2019-03-27T01:50:12.535Z,8.67
2019-03-27T01:52:41.978Z,15.80
2019-03-27T01:55:11.438Z,7.80
2019-03-27T01:57:40.876Z,3.60
2019-03-27T02:00:10.748Z,14.97
2019-03-27T02:02:40.218Z,7.63
2019-03-27T02:05:10.049Z,7.47
2019-03-27T02:07:39.569Z,12.70
2019-03-27T02:10:09.744Z,8.33
2019-03-27T02:12:39.183Z,6.40
2019-03-27T02:15:10.850Z,10.10
2019-03-27T02:17:40.352Z,12.40
2019-03-27T02:20:09.789Z,8.83
2019-03-27T02:22:39.249Z,9.40
2019-03-27T02:25:08.869Z,9.00
2019-03-27T02:27:38.302Z,11.13
2019-03-27T02:30:08.000Z,11.37
2019-03-27T02:32:37.426Z,4.33
2019-03-27T02:35:07.549Z,10.00
2019-03-27T02:37:36.926Z,12.93
2019-03-27T02:40:06.741Z,16.30
2019-03-27T02:42:36.529Z,12.30
2019-03-27T02:45:06.284Z,8.90
2019-03-27T02:47:35.694Z,12.20
2019-03-27T02:50:05.933Z,15.90
2019-03-27T02:52:35.439Z,8.30
2019-03-27T02:55:05.087Z,7.30
2019-03-27T02:57:34.742Z,11.43
2019-03-27T03:00:04.714Z,7.73
2019-03-27T03:02:34.123Z,15.40
2019-03-27T03:05:03.526Z,16.93
2019-03-27T03:07:32.927Z,7.60
2019-03-27T03:10:02.468Z,8.50
2019-03-27T03:12:31.868Z,17.67
2019-03-27T03:15:01.237Z,8.00
2019-03-27T03:17:30.675Z,12.73
2019-03-27T03:20:00.203Z,9.93
2019-03-27T03:22:30.242Z,9.33
2019-03-27T03:24:59.625Z,11.57
2019-03-27T03:27:29.157Z,6.67
2019-03-27T03:29:58.500Z,10.93
2019-03-27T03:32:27.982Z,7.93
2019-03-27T03:34:57.456Z,16.73
2019-03-27T03:37:27.105Z,7.83
2019-03-27T03:39:56.496Z,8.73
2019-03-27T03:42:25.856Z,11.63
2019-03-27T03:44:55.349Z,10.97
2019-03-27T03:47:24.772Z,9.10
2019-03-27T03:49:54.299Z,6.70
2019-03-27T03:52:24.909Z,9.60
2019-03-27T03:54:54.643Z,9.57
2019-03-27T03:57:26.545Z,8.57
2019-03-27T03:59:57.369Z,4.97
2019-03-27T04:02:28.361Z,10.33
2019-03-27T04:04:59.028Z,17.43
2019-03-27T04:07:28.464Z,7.53
2019-03-27T04:09:58.259Z,9.50
2019-03-27T04:12:28.118Z,8.57
2019-03-27T04:14:57.550Z,6.30
2019-03-27T04:17:26.965Z,8.13
2019-03-27T04:19:56.339Z,9.30
2019-03-27T04:22:25.954Z,9.97
2019-03-27T04:24:55.468Z,10.97
2019-03-27T04:27:24.867Z,11.80
2019-03-27T04:29:54.242Z,9.30
2019-03-27T04:32:23.691Z,11.43
2019-03-27T04:34:53.049Z,5.63
2019-03-27T04:37:22.630Z,12.60
2019-03-27T04:39:51.986Z,5.57
2019-03-27T04:42:21.603Z,13.23
2019-03-27T04:44:50.961Z,6.43
2019-03-27T04:47:31.451Z,11.77
2019-03-27T04:49:51.480Z,7.07
2019-03-27T04:52:20.847Z,11.30
2019-03-27T04:54:50.285Z,7.50
2019-03-27T04:57:19.783Z,6.63
2019-03-27T04:59:49.129Z,7.87
2019-03-27T05:02:18.619Z,9.67
2019-03-27T05:04:48.454Z,7.90
2019-03-27T05:07:17.967Z,7.73
2019-03-27T05:09:47.331Z,9.00
2019-03-27T05:12:16.693Z,16.00
2019-03-27T05:14:46.137Z,11.07
2019-03-27T05:17:15.479Z,9.37
2019-03-27T05:19:44.964Z,12.50
2019-03-27T05:22:14.327Z,5.30
2019-03-27T05:24:43.811Z,8.63
2019-03-27T05:27:13.262Z,14.20
2019-03-27T05:29:42.661Z,12.00
2019-03-27T05:32:12.166Z,9.57
2019-03-27T05:34:41.689Z,16.17
2019-03-27T05:37:11.109Z,12.67
2019-03-27T05:39:40.520Z,13.80
2019-03-27T05:42:09.889Z,7.33
2019-03-27T05:44:39.326Z,11.17
2019-03-27T05:47:08.794Z,7.33
2019-03-27T05:49:38.365Z,12.00
2019-03-27T05:52:07.723Z,16.87
2019-03-27T05:54:37.232Z,12.47
2019-03-27T05:57:06.924Z,12.07
2019-03-27T05:59:36.363Z,12.53
2019-03-27T06:02:05.968Z,6.00
2019-03-27T06:04:35.343Z,9.60
2019-03-27T06:07:04.854Z,10.33
2019-03-27T06:09:34.210Z,9.93
2019-03-27T06:12:03.580Z,11.10
2019-03-27T06:14:33.187Z,12.17
2019-03-27T06:17:02.558Z,11.97
2019-03-27T06:19:31.925Z,10.50
2019-03-27T06:22:01.521Z,11.87
2019-03-27T06:24:31.023Z,8.40
2019-03-27T06:27:00.701Z,10.90
2019-03-27T06:29:30.097Z,13.00
2019-03-27T06:31:59.677Z,15.70
2019-03-27T06:34:29.215Z,24.47
2019-03-27T06:36:58.677Z,9.20
2019-03-27T06:39:28.236Z,10.83
2019-03-27T06:41:57.583Z,13.20
2019-03-27T06:44:26.942Z,9.67
2019-03-27T06:46:56.376Z,13.67
2019-03-27T06:49:25.736Z,13.57
2019-03-27T06:51:55.269Z,13.17
2019-03-27T06:54:24.692Z,12.00
2019-03-27T06:56:54.231Z,12.93
2019-03-27T06:59:23.851Z,10.30
2019-03-27T07:01:53.253Z,9.03
2019-03-27T07:04:22.990Z,12.93
2019-03-27T07:06:52.374Z,15.23
2019-03-27T07:09:21.747Z,16.73
2019-03-27T07:11:51.090Z,15.87
2019-03-27T07:14:20.573Z,12.80
2019-03-27T07:16:49.995Z,14.70
2019-03-27T07:19:19.385Z,17.33
2019-03-27T07:21:48.870Z,17.07
2019-03-27T07:24:18.296Z,18.30
2019-03-27T07:26:47.777Z,17.10
2019-03-27T07:29:19.044Z,16.83
2019-03-27T07:31:48.470Z,15.20
2019-03-27T07:34:17.962Z,13.90
2019-03-27T07:36:47.452Z,14.33
2019-03-27T07:39:16.813Z,13.50
2019-03-27T07:41:46.181Z,20.83
2019-03-27T07:44:15.594Z,17.40
2019-03-27T07:46:45.043Z,15.40
2019-03-27T07:49:14.418Z,16.93
2019-03-27T07:51:43.761Z,18.00
2019-03-27T07:54:13.243Z,12.77
2019-03-27T07:56:42.720Z,20.97
2019-03-27T07:59:12.157Z,16.63
2019-03-27T08:01:41.958Z,15.30
2019-03-27T08:04:14.198Z,18.77
2019-03-27T08:06:42.678Z,18.43
2019-03-27T08:09:12.235Z,14.73
2019-03-27T08:11:41.853Z,14.27
2019-03-27T08:14:11.466Z,19.40
2019-03-27T08:16:40.904Z,16.90
2019-03-27T08:19:10.346Z,13.13
2019-03-27T08:21:39.724Z,13.07
2019-03-27T08:24:09.237Z,14.93
2019-03-27T08:26:38.769Z,11.03
2019-03-27T08:29:08.431Z,21.50
2019-03-27T08:31:37.852Z,11.57
2019-03-27T08:34:07.298Z,12.47
2019-03-27T08:36:36.840Z,11.00
2019-03-27T08:39:08.500Z,8.67
2019-03-27T08:41:38.090Z,15.77
2019-03-27T08:44:07.566Z,9.63
2019-03-27T08:46:37.094Z,15.07
2019-03-27T08:49:20.748Z,9.30
2019-03-27T08:51:37.859Z,14.13
2019-03-27T08:54:07.350Z,8.60
2019-03-27T08:56:36.826Z,11.43
2019-03-27T08:59:06.279Z,7.10
2019-03-27T09:01:35.642Z,14.67
2019-03-27T09:04:05.113Z,5.80
2019-03-27T09:06:34.469Z,8.77
2019-03-27T09:09:06.001Z,11.20
2019-03-27T09:11:35.321Z,6.03
2019-03-27T09:14:04.860Z,6.70
2019-03-27T09:16:34.268Z,7.77
2019-03-27T09:19:03.831Z,10.53
2019-03-27T09:21:33.462Z,7.53
2019-03-27T09:24:03.025Z,9.03
2019-03-27T09:26:32.408Z,11.17
2019-03-27T09:29:01.781Z,6.50
2019-03-27T09:31:44.135Z,11.37
2019-03-27T09:34:02.251Z,6.30
2019-03-27T09:36:31.625Z,9.17
2019-03-27T09:39:01.098Z,5.53
2019-03-27T09:41:30.581Z,7.50
2019-03-27T09:44:00.043Z,10.00
2019-03-27T09:46:29.396Z,8.13
2019-03-27T09:48:58.882Z,7.53
2019-03-27T09:51:28.291Z,7.70
2019-03-27T09:53:57.843Z,4.90
2019-03-27T09:56:27.302Z,9.30
2019-03-27T09:58:56.681Z,6.87
2019-03-27T10:01:26.142Z,10.80
2019-03-27T10:03:55.635Z,8.47
2019-03-27T10:06:25.222Z,6.43
2019-03-27T10:08:54.724Z,8.00
2019-03-27T10:11:24.246Z,6.23
2019-03-27T10:13:53.715Z,13.07
2019-03-27T10:16:23.188Z,7.10
2019-03-27T10:18:52.645Z,8.60
2019-03-27T10:21:22.259Z,13.23
2019-03-27T10:23:51.879Z,9.17
2019-03-27T10:26:21.389Z,7.70
2019-03-27T10:28:50.926Z,6.27
2019-03-27T10:31:20.434Z,6.90
2019-03-27T10:33:49.830Z,6.53
2019-03-27T10:36:19.346Z,10.50
2019-03-27T10:38:48.727Z,11.83
2019-03-27T10:41:18.116Z,10.13
2019-03-27T10:43:47.490Z,7.07
2019-03-27T10:46:16.874Z,10.87
2019-03-27T10:48:52.544Z,9.67
2019-03-27T10:51:17.566Z,10.00
2019-03-27T10:53:47.043Z,13.60
2019-03-27T10:56:16.578Z,14.60
2019-03-27T10:58:46.072Z,7.70
2019-03-27T11:01:15.515Z,17.83
2019-03-27T11:03:45.002Z,12.83
2019-03-27T11:06:14.527Z,9.53
2019-03-27T11:08:44.061Z,10.00
2019-03-27T11:11:13.516Z,10.50
2019-03-27T11:13:43.053Z,10.50
2019-03-27T11:16:12.607Z,7.07
2019-03-27T11:18:41.965Z,10.23
2019-03-27T11:21:11.426Z,12.50
2019-03-27T11:23:40.962Z,9.97
2019-03-27T11:26:10.341Z,10.70
2019-03-27T11:28:39.707Z,13.17
2019-03-27T11:31:09.138Z,7.80
2019-03-27T11:33:38.622Z,12.07
2019-03-27T11:36:09.061Z,9.67
2019-03-27T11:38:38.459Z,13.23
2019-03-27T11:41:08.150Z,11.13
2019-03-27T11:43:37.585Z,8.87
2019-03-27T11:46:07.129Z,13.60
2019-03-27T11:48:36.576Z,12.37
2019-03-27T11:51:06.004Z,12.30
2019-03-27T11:53:35.558Z,7.53
2019-03-27T11:56:04.983Z,8.43
2019-03-27T11:58:34.481Z,9.30
2019-03-27T12:01:04.204Z,13.43
2019-03-27T12:03:33.756Z,10.40
2019-03-27T12:06:03.254Z,15.70
2019-03-27T12:08:32.698Z,12.50
2019-03-27T12:11:02.292Z,13.10
2019-03-27T12:13:31.751Z,10.33
2019-03-27T12:16:01.247Z,14.93
2019-03-27T12:18:32.202Z,12.77
2019-03-27T12:21:01.810Z,9.13
2019-03-27T12:23:31.181Z,19.00
2019-03-27T12:26:00.683Z,9.13
2019-03-27T12:28:30.148Z,8.10
2019-03-27T12:30:59.594Z,10.60
2019-03-27T12:33:28.995Z,13.97
2019-03-27T12:35:58.440Z,9.40
2019-03-27T12:38:27.939Z,8.30
2019-03-27T12:40:57.688Z,12.87
2019-03-27T12:43:27.201Z,11.10
2019-03-27T12:45:56.574Z,8.20
2019-03-27T12:48:26.176Z,7.73
2019-03-27T12:50:55.742Z,8.63
2019-03-27T12:53:25.294Z,7.43
2019-03-27T12:55:54.827Z,8.27
2019-03-27T12:58:27.314Z,9.80
2019-03-27T13:00:56.758Z,5.37
2019-03-27T13:03:26.223Z,9.97
2019-03-27T13:05:55.690Z,9.13
2019-03-27T13:08:25.633Z,11.10
2019-03-27T13:10:55.021Z,5.67
2019-03-27T13:13:24.547Z,6.37
2019-03-27T13:15:54.061Z,6.17
2019-03-27T13:18:23.501Z,5.07
2019-03-27T13:20:52.850Z,7.37
2019-03-27T13:23:22.329Z,11.50
2019-03-27T13:25:51.841Z,8.87
2019-03-27T13:28:21.382Z,7.37
2019-03-27T13:30:50.763Z,6.13
2019-03-27T13:33:20.215Z,7.20
2019-03-27T13:35:51.493Z,14.50
2019-03-27T13:38:21.027Z,6.03
2019-03-27T13:40:51.845Z,10.43
2019-03-27T13:43:21.546Z,13.50
2019-03-27T13:45:52.135Z,9.40
2019-03-27T13:48:21.907Z,6.73
2019-03-27T13:50:51.309Z,9.67
2019-03-27T13:53:23.789Z,8.50
2019-03-27T13:55:53.348Z,6.00
2019-03-27T13:58:25.937Z,8.27
2019-03-27T14:00:55.839Z,7.30
2019-03-27T14:03:25.564Z,8.83
2019-03-27T14:05:54.934Z,8.03
2019-03-27T14:08:24.502Z,7.17
2019-03-27T14:10:53.950Z,10.10
2019-03-27T14:13:23.527Z,7.43
2019-03-27T14:15:56.155Z,8.63
2019-03-27T14:18:25.744Z,4.80
2019-03-27T14:20:55.228Z,6.50
2019-03-27T14:23:24.697Z,10.93
2019-03-27T14:25:54.095Z,7.33
2019-03-27T14:28:23.784Z,11.37
2019-03-27T14:30:55.342Z,6.43
2019-03-27T14:33:24.885Z,5.97
2019-03-27T14:35:54.325Z,14.60
2019-03-27T14:38:23.981Z,6.90
2019-03-27T14:40:53.644Z,8.70
2019-03-27T14:43:23.103Z,5.97
2019-03-27T14:45:52.679Z,8.80
2019-03-27T14:48:22.287Z,5.20
2019-03-27T14:50:51.765Z,7.03
2019-03-27T14:53:21.409Z,6.10
2019-03-27T14:55:50.864Z,5.03
2019-03-27T14:58:20.415Z,9.20
2019-03-27T15:00:49.918Z,8.37
2019-03-27T15:03:19.422Z,6.30
2019-03-27T15:05:48.868Z,5.00
2019-03-27T15:08:18.423Z,9.13
2019-03-27T15:10:47.933Z,10.60
2019-03-27T15:13:17.310Z,9.60
2019-03-27T15:15:46.769Z,8.37
2019-03-27T15:18:16.478Z,4.57
2019-03-27T15:20:46.140Z,5.83
2019-03-27T15:23:15.679Z,7.73
2019-03-27T15:25:45.111Z,8.40
2019-03-27T15:28:14.461Z,9.13
2019-03-27T15:30:43.921Z,6.13
2019-03-27T15:33:13.371Z,6.70
2019-03-27T15:35:44.648Z,5.50
2019-03-27T15:38:14.018Z,4.00
2019-03-27T15:40:44.979Z,4.70
2019-03-27T15:43:14.614Z,4.27
2019-03-27T15:45:44.158Z,7.30
2019-03-27T15:48:13.613Z,6.03
2019-03-27T15:50:54.228Z,6.57
2019-03-27T15:53:14.336Z,6.73
2019-03-27T15:55:43.885Z,5.83
2019-03-27T15:58:13.260Z,6.53
2019-03-27T16:00:42.614Z,11.73
2019-03-27T16:03:12.133Z,4.73
2019-03-27T16:05:41.718Z,8.13
2019-03-27T16:08:11.159Z,5.53
2019-03-27T16:10:40.689Z,4.90
2019-03-27T16:13:10.115Z,5.10
2019-03-27T16:15:39.694Z,5.90
2019-03-27T16:18:09.270Z,7.70
2019-03-27T16:20:38.753Z,4.53
2019-03-27T16:23:08.211Z,7.87
2019-03-27T16:25:37.712Z,6.43
2019-03-27T16:28:11.786Z,6.40
2019-03-27T16:30:41.534Z,8.27
2019-03-27T16:33:11.175Z,9.90
2019-03-27T16:35:40.627Z,14.37
2019-03-27T16:38:10.062Z,12.70
2019-03-27T16:40:47.458Z,9.97
2019-03-27T16:43:17.857Z,9.50
2019-03-27T16:45:48.435Z,10.70
2019-03-27T16:48:17.993Z,7.47
2019-03-27T16:50:47.718Z,8.53
2019-03-27T16:53:17.721Z,14.00
2019-03-27T16:55:47.454Z,19.57
2019-03-27T16:58:17.013Z,16.10
2019-03-27T17:00:46.554Z,19.07
2019-03-27T17:03:15.997Z,19.23
2019-03-27T17:05:53.889Z,22.00
2019-03-27T17:08:17.072Z,18.87
2019-03-27T17:10:46.505Z,18.97
2019-03-27T17:13:16.145Z,18.87
2019-03-27T17:15:45.784Z,22.30
2019-03-27T17:18:15.335Z,25.13
2019-03-27T17:20:44.791Z,20.53
2019-03-27T17:23:18.310Z,18.50
2019-03-27T17:25:45.834Z,18.33
2019-03-27T17:28:15.384Z,21.20
2019-03-27T17:30:44.771Z,20.03
2019-03-27T17:33:14.353Z,18.83
2019-03-27T17:35:43.870Z,20.63
2019-03-27T17:38:13.457Z,28.60
2019-03-27T17:40:42.877Z,23.33
2019-03-27T17:43:12.315Z,19.47
2019-03-27T17:45:41.798Z,19.35
2019-03-27T17:48:11.259Z,16.93
2019-03-27T17:50:50.263Z,20.00
2019-03-27T17:53:31.115Z,14.10
2019-03-27T17:55:51.357Z,13.40
2019-03-27T17:58:20.836Z,20.80
2019-03-27T18:00:53.822Z,18.80
2019-03-27T18:03:23.325Z,16.90
2019-03-27T18:05:53.137Z,17.67
2019-03-27T18:08:22.613Z,15.50
2019-03-27T18:10:52.077Z,17.77
2019-03-27T18:13:21.693Z,19.73
2019-03-27T18:15:51.243Z,16.50
2019-03-27T18:18:20.718Z,15.40
2019-03-27T18:20:50.245Z,12.13
2019-03-27T18:23:19.701Z,12.53
2019-03-27T18:25:49.234Z,11.20
2019-03-27T18:28:18.781Z,11.93
2019-03-27T18:30:48.287Z,10.90
2019-03-27T18:33:17.726Z,9.10
2019-03-27T18:35:47.154Z,12.83
2019-03-27T18:38:16.557Z,9.37
2019-03-27T18:40:46.141Z,17.10
2019-03-27T18:43:15.606Z,15.37
2019-03-27T18:45:45.050Z,13.63
2019-03-27T18:48:14.551Z,13.47
2019-03-27T18:50:43.926Z,18.60
2019-03-27T18:53:13.578Z,13.03
2019-03-27T18:55:43.054Z,14.80
2019-03-27T18:58:12.579Z,14.67
2019-03-27T19:00:42.070Z,17.23
2019-03-27T19:03:11.727Z,16.73
2019-03-27T19:05:41.321Z,17.43
2019-03-27T19:08:10.941Z,16.33
2019-03-27T19:10:40.366Z,16.93
2019-03-27T19:13:09.858Z,16.30
2019-03-27T19:15:39.296Z,19.23
2019-03-27T19:18:08.838Z,17.17
2019-03-27T19:20:38.507Z,22.50
2019-03-27T19:23:07.932Z,18.37
2019-03-27T19:25:37.558Z,13.23
2019-03-27T19:28:06.975Z,20.57
2019-03-27T19:30:36.413Z,25.27
2019-03-27T19:33:06.022Z,10.90
2019-03-27T19:35:35.675Z,16.93
2019-03-27T19:38:05.265Z,16.77
2019-03-27T19:40:34.653Z,18.53
2019-03-27T19:43:04.314Z,15.27
2019-03-27T19:45:33.904Z,16.33
2019-03-27T19:48:03.464Z,17.97
2019-03-27T19:50:32.934Z,13.47
2019-03-27T19:53:02.402Z,21.77
2019-03-27T19:55:31.851Z,14.53
2019-03-27T19:58:01.460Z,20.33
2019-03-27T20:00:31.013Z,19.77
2019-03-27T20:03:00.433Z,13.90
2019-03-27T20:05:29.905Z,21.07
2019-03-27T20:07:59.450Z,13.47
2019-03-27T20:10:28.806Z,19.33
2019-03-27T20:12:58.470Z,17.33
2019-03-27T20:15:28.051Z,18.40
2019-03-27T20:17:57.507Z,15.60
2019-03-27T20:20:26.991Z,15.23
2019-03-27T20:22:56.517Z,16.60
2019-03-27T20:25:26.055Z,23.97
2019-03-27T20:27:55.728Z,21.57
2019-03-27T20:30:26.998Z,20.87
2019-03-27T20:32:56.859Z,24.30
2019-03-27T20:35:26.223Z,19.93
2019-03-27T20:37:55.637Z,26.57
2019-03-27T20:40:27.665Z,24.30
2019-03-27T20:42:56.463Z,27.73
2019-03-27T20:45:25.942Z,28.07
2019-03-27T20:47:55.346Z,27.20
2019-03-27T20:50:26.921Z,24.60
2019-03-27T20:52:56.091Z,24.47
2019-03-27T20:55:30.604Z,26.63
2019-03-27T20:57:56.846Z,27.10
2019-03-27T21:00:26.401Z,22.00
2019-03-27T21:02:55.953Z,28.50
2019-03-27T21:05:25.671Z,22.90
2019-03-27T21:07:55.124Z,29.90
2019-03-27T21:10:24.573Z,23.53
2019-03-27T21:12:54.101Z,32.23
2019-03-27T21:15:23.701Z,39.73
2019-03-27T21:17:53.163Z,33.20
2019-03-27T21:20:22.742Z,26.83
2019-03-27T21:22:52.362Z,25.20
2019-03-27T21:25:21.709Z,27.30
2019-03-27T21:27:51.093Z,34.63
2019-03-27T21:30:20.648Z,30.30
2019-03-27T21:32:50.061Z,28.90
2019-03-27T21:35:19.515Z,27.33
2019-03-27T21:37:49.081Z,30.07
2019-03-27T21:40:18.908Z,22.23
2019-03-27T21:42:48.479Z,35.27
2019-03-27T21:45:18.046Z,30.60
2019-03-27T21:47:47.940Z,29.60
2019-03-27T21:50:17.909Z,34.87
2019-03-27T21:52:59.814Z,28.33
2019-03-27T21:55:22.837Z,27.73
2019-03-27T21:57:49.892Z,30.47
2019-03-27T22:00:36.372Z,28.20
2019-03-27T22:03:06.622Z,32.33
2019-03-27T22:05:36.501Z,29.87
2019-03-27T22:08:06.186Z,34.77
2019-03-27T22:10:35.728Z,37.30
2019-03-27T22:13:05.719Z,25.80
2019-03-27T22:15:35.238Z,29.00
2019-03-27T22:18:04.860Z,29.17
2019-03-27T22:20:34.297Z,30.77
2019-03-27T22:23:03.736Z,28.50
2019-03-27T22:25:36.308Z,36.60
2019-03-27T22:28:04.671Z,29.30
2019-03-27T22:30:34.544Z,29.90
2019-03-27T22:33:04.423Z,32.97
2019-03-27T22:35:33.819Z,29.60
2019-03-27T22:38:03.409Z,33.47
2019-03-27T22:40:32.993Z,29.10
2019-03-27T22:43:02.432Z,34.87
2019-03-27T22:45:31.982Z,34.50
2019-03-27T22:48:01.500Z,30.37
2019-03-27T22:50:31.077Z,32.80
2019-03-27T22:53:00.491Z,34.00
2019-03-27T22:55:30.041Z,37.10
2019-03-27T22:57:59.580Z,36.57
2019-03-27T23:00:45.514Z,28.27
2019-03-27T23:03:18.481Z,31.03
2019-03-27T23:05:47.495Z,31.93
2019-03-27T23:08:17.082Z,34.20
2019-03-27T23:10:46.689Z,32.90
2019-03-27T23:13:16.224Z,34.30
2019-03-27T23:15:45.825Z,31.20
2019-03-27T23:18:15.477Z,39.87
2019-03-27T23:20:44.973Z,32.23
2019-03-27T23:23:14.600Z,31.23
2019-03-27T23:25:44.190Z,34.53
2019-03-27T23:28:13.940Z,34.40
2019-03-27T23:30:43.372Z,36.07
2019-03-27T23:33:12.883Z,34.97
2019-03-27T23:35:42.541Z,36.73
2019-03-27T23:38:12.621Z,36.87
2019-03-27T23:40:42.018Z,35.40
2019-03-27T23:43:11.584Z,35.47
2019-03-27T23:45:41.288Z,42.73
2019-03-27T23:48:11.073Z,36.77
2019-03-27T23:50:40.499Z,36.83
2019-03-27T23:53:11.619Z,40.40
2019-03-27T23:55:41.064Z,41.77
2019-03-27T23:58:10.578Z,37.83
